createdAt,value
2023-05-14T00:02:13.586Z,8.80
2023-05-14T00:04:41.237Z,9.10
2023-05-14T00:07:08.253Z,9.20
2023-05-14T00:09:37.064Z,10.10
2023-05-14T00:12:05.503Z,9.40
2023-05-14T00:14:32.513Z,10.10
2023-05-14T00:17:00.028Z,9.40
2023-05-14T00:19:27.490Z,10.20
2023-05-14T00:21:54.539Z,10.60
2023-05-14T00:24:21.585Z,11.30
2023-05-14T00:26:48.602Z,10.90
2023-05-14T00:29:15.675Z,11.60
2023-05-14T00:31:42.750Z,10.50
2023-05-14T00:34:10.029Z,9.70
2023-05-14T00:36:37.052Z,10.60
2023-05-14T00:39:05.050Z,10.40
2023-05-14T00:41:32.069Z,10.90
2023-05-14T00:43:59.107Z,11.60
2023-05-14T00:46:26.456Z,10.10
2023-05-14T00:48:53.861Z,10.50
2023-05-14T00:51:21.561Z,9.80
2023-05-14T00:53:48.604Z,10.80
2023-05-14T00:56:15.633Z,11.40
2023-05-14T00:58:42.613Z,10.10
2023-05-14T01:01:09.750Z,10.90
2023-05-14T01:03:36.943Z,10.10
2023-05-14T01:06:12.499Z,10.60
2023-05-14T01:08:54.917Z,10.60
2023-05-14T01:11:28.714Z,10.40
2023-05-14T01:14:17.176Z,14.20
2023-05-14T01:16:44.989Z,11.50
2023-05-14T01:19:21.827Z,11.80
2023-05-14T01:21:48.824Z,12.90
2023-05-14T01:24:17.104Z,11.20
2023-05-14T01:26:44.102Z,12.40
2023-05-14T01:29:19.551Z,11.90
2023-05-14T01:31:47.408Z,11.70
2023-05-14T01:34:14.624Z,12.40
2023-05-14T01:36:41.661Z,11.50
2023-05-14T01:39:11.630Z,11.20
2023-05-14T01:41:39.815Z,11.30
2023-05-14T01:44:06.835Z,11.00
2023-05-14T01:46:34.082Z,11.90
2023-05-14T01:49:01.383Z,11.10
2023-05-14T01:51:28.610Z,10.30
2023-05-14T01:53:55.714Z,10.70
2023-05-14T01:56:23.925Z,10.90
2023-05-14T01:58:51.392Z,11.50
2023-05-14T02:01:18.509Z,11.20
2023-05-14T02:03:45.895Z,10.60
2023-05-14T02:06:12.925Z,10.60
2023-05-14T02:08:40.166Z,11.10
2023-05-14T02:11:07.247Z,10.90
2023-05-14T02:13:34.326Z,10.80
2023-05-14T02:16:01.764Z,10.40
2023-05-14T02:18:28.942Z,10.90
2023-05-14T02:20:56.372Z,11.00
2023-05-14T02:23:34.088Z,11.00
2023-05-14T02:26:06.462Z,10.90
2023-05-14T02:28:33.505Z,11.20
2023-05-14T02:31:03.399Z,10.90
2023-05-14T02:33:30.611Z,10.30
2023-05-14T02:35:57.727Z,10.00
2023-05-14T02:38:26.014Z,9.90
2023-05-14T02:40:53.175Z,10.20
2023-05-14T02:43:20.226Z,11.20
2023-05-14T02:45:47.457Z,11.50
2023-05-14T02:48:14.533Z,11.40
2023-05-14T02:50:41.772Z,10.60
2023-05-14T02:53:08.978Z,10.80
2023-05-14T02:55:36.529Z,10.40
2023-05-14T02:58:03.673Z,10.70
2023-05-14T03:00:33.017Z,11.20
2023-05-14T03:03:00.828Z,11.10
2023-05-14T03:05:28.289Z,11.30
2023-05-14T03:07:55.362Z,11.30
2023-05-14T03:10:23.282Z,11.10
2023-05-14T03:12:50.657Z,11.20
2023-05-14T03:15:17.825Z,10.90
2023-05-14T03:17:44.882Z,9.90
2023-05-14T03:20:13.377Z,10.60
2023-05-14T03:22:42.889Z,9.80
2023-05-14T03:25:10.186Z,10.10
2023-05-14T03:27:37.197Z,9.40
2023-05-14T03:30:05.611Z,9.80
2023-05-14T03:32:32.790Z,10.30
2023-05-14T03:34:59.848Z,9.10
2023-05-14T03:37:26.871Z,10.30
2023-05-14T03:39:55.443Z,9.70
2023-05-14T03:42:22.442Z,10.20
2023-05-14T03:44:49.660Z,10.30
2023-05-14T03:47:16.755Z,10.60
2023-05-14T03:49:43.966Z,10.40
2023-05-14T03:52:11.861Z,10.10
2023-05-14T03:54:38.982Z,9.30
2023-05-14T03:57:06.099Z,9.50
2023-05-14T03:59:33.106Z,9.70
2023-05-14T04:02:00.152Z,9.80
2023-05-14T04:04:27.285Z,9.30
2023-05-14T04:06:54.869Z,9.10
2023-05-14T04:09:21.906Z,8.40
2023-05-14T04:11:49.120Z,8.10
2023-05-14T04:14:16.174Z,7.20
2023-05-14T04:16:44.224Z,7.50
2023-05-14T04:19:11.378Z,7.40
2023-05-14T04:21:39.112Z,7.20
2023-05-14T04:24:06.462Z,7.00
2023-05-14T04:26:33.569Z,6.80
2023-05-14T04:29:03.182Z,6.60
2023-05-14T04:31:31.887Z,5.70
2023-05-14T04:33:59.066Z,6.20
2023-05-14T04:36:28.794Z,6.20
2023-05-14T04:38:56.449Z,6.60
2023-05-14T04:41:23.493Z,6.30
2023-05-14T04:43:52.307Z,6.20
2023-05-14T04:46:20.114Z,6.20
2023-05-14T04:48:47.244Z,5.50
2023-05-14T04:51:14.869Z,6.10
2023-05-14T04:53:41.856Z,6.10
2023-05-14T04:56:08.959Z,5.40
2023-05-14T04:58:35.999Z,5.40
2023-05-14T05:01:05.328Z,5.40
2023-05-14T05:03:32.592Z,5.50
2023-05-14T05:05:59.613Z,5.10
2023-05-14T05:08:26.689Z,5.30
2023-05-14T05:10:53.896Z,5.30
2023-05-14T05:13:20.903Z,5.60
2023-05-14T05:15:47.997Z,5.30
2023-05-14T05:18:15.098Z,5.20
2023-05-14T05:20:42.184Z,5.30
2023-05-14T05:23:09.245Z,5.60
2023-05-14T05:25:36.342Z,5.20
2023-05-14T05:28:03.438Z,5.00
2023-05-14T05:30:30.610Z,4.80
2023-05-14T05:32:57.946Z,4.90
2023-05-14T05:35:25.321Z,4.70
2023-05-14T05:37:52.440Z,5.00
2023-05-14T05:40:20.056Z,4.70
2023-05-14T05:42:47.109Z,4.60
2023-05-14T05:45:14.121Z,4.60
2023-05-14T05:47:41.811Z,5.30
2023-05-14T05:50:09.973Z,4.90
2023-05-14T05:52:37.120Z,4.90
2023-05-14T05:55:04.701Z,4.80
2023-05-14T05:57:32.050Z,5.00
2023-05-14T05:59:59.305Z,4.80
2023-05-14T06:02:26.586Z,5.10
2023-05-14T06:04:55.784Z,4.60
2023-05-14T06:07:23.544Z,4.70
2023-05-14T06:09:51.157Z,4.40
2023-05-14T06:12:21.335Z,5.00
2023-05-14T06:14:48.479Z,4.50
2023-05-14T06:17:19.064Z,4.40
2023-05-14T06:19:46.100Z,4.50
2023-05-14T06:22:13.209Z,4.60
2023-05-14T06:24:40.229Z,4.60
2023-05-14T06:27:07.878Z,4.30
2023-05-14T06:29:34.986Z,4.10
2023-05-14T06:32:04.004Z,4.60
2023-05-14T06:34:31.721Z,4.20
2023-05-14T06:36:59.022Z,4.30
2023-05-14T06:39:26.255Z,3.60
2023-05-14T06:41:53.532Z,4.10
2023-05-14T06:44:21.625Z,4.40
2023-05-14T06:46:50.521Z,4.20
2023-05-14T06:49:20.074Z,4.30
2023-05-14T06:51:49.565Z,4.40
2023-05-14T06:54:17.348Z,3.70
2023-05-14T06:56:44.728Z,3.70
2023-05-14T06:59:11.918Z,3.90
2023-05-14T07:01:41.215Z,4.00
2023-05-14T07:04:09.087Z,3.40
2023-05-14T07:06:36.761Z,3.80
2023-05-14T07:09:04.076Z,3.60
2023-05-14T07:11:31.198Z,3.40
2023-05-14T07:13:58.723Z,3.60
2023-05-14T07:16:26.362Z,3.60
2023-05-14T07:18:53.781Z,3.40
2023-05-14T07:21:20.979Z,3.40
2023-05-14T07:23:47.960Z,3.30
2023-05-14T07:26:15.105Z,3.30
2023-05-14T07:28:42.364Z,3.20
2023-05-14T07:31:09.671Z,3.30
2023-05-14T07:33:36.745Z,3.40
2023-05-14T07:36:03.895Z,3.00
2023-05-14T07:38:31.374Z,2.90
2023-05-14T07:40:58.762Z,3.00
2023-05-14T07:43:26.189Z,3.20
2023-05-14T07:45:53.219Z,2.90
2023-05-14T07:48:20.323Z,3.30
2023-05-14T07:50:49.164Z,2.90
2023-05-14T07:53:16.944Z,3.00
2023-05-14T07:55:45.510Z,2.90
2023-05-14T07:58:12.710Z,3.30
2023-05-14T08:00:40.480Z,3.20
2023-05-14T08:03:08.247Z,3.20
2023-05-14T08:05:35.238Z,3.10
2023-05-14T08:08:02.850Z,3.00
2023-05-14T08:10:30.114Z,3.70
2023-05-14T08:12:57.435Z,3.30
2023-05-14T08:15:27.719Z,3.20
2023-05-14T08:18:03.656Z,3.00
2023-05-14T08:20:33.950Z,3.50
2023-05-14T08:23:01.750Z,3.20
2023-05-14T08:25:30.053Z,3.30
2023-05-14T08:28:03.231Z,2.90
2023-05-14T08:30:32.676Z,3.20
2023-05-14T08:33:00.270Z,3.00
2023-05-14T08:35:27.410Z,3.30
2023-05-14T08:37:54.953Z,2.70
2023-05-14T08:40:22.291Z,3.00
2023-05-14T08:42:52.553Z,3.10
2023-05-14T08:45:22.790Z,2.60
2023-05-14T08:47:52.170Z,2.90
2023-05-14T08:50:23.722Z,2.90
2023-05-14T08:52:54.042Z,3.20
2023-05-14T08:55:21.611Z,2.60
2023-05-14T08:57:51.277Z,2.70
2023-05-14T09:00:19.454Z,2.90
2023-05-14T09:02:46.585Z,3.00
2023-05-14T09:05:13.824Z,3.00
2023-05-14T09:07:41.731Z,2.80
2023-05-14T09:10:09.922Z,2.90
2023-05-14T09:12:36.932Z,3.00
2023-05-14T09:15:05.155Z,2.80
2023-05-14T09:17:32.846Z,2.60
2023-05-14T09:20:00.932Z,2.80
2023-05-14T09:22:29.830Z,3.30
2023-05-14T09:25:12.464Z,2.80
2023-05-14T09:27:40.094Z,2.60
2023-05-14T09:30:14.350Z,3.10
2023-05-14T09:32:46.307Z,2.90
2023-05-14T09:35:24.046Z,2.70
2023-05-14T09:37:53.751Z,2.60
2023-05-14T09:40:22.859Z,3.00
2023-05-14T09:42:50.758Z,2.90
2023-05-14T09:45:17.992Z,3.10
2023-05-14T09:47:46.115Z,2.70
2023-05-14T09:50:13.365Z,2.90
2023-05-14T09:52:40.541Z,2.90
2023-05-14T09:55:08.454Z,3.00
2023-05-14T09:57:35.946Z,3.10
2023-05-14T10:00:03.233Z,3.00
2023-05-14T10:02:41.625Z,2.70
2023-05-14T10:05:09.717Z,3.00
2023-05-14T10:07:43.205Z,2.70
2023-05-14T10:10:15.311Z,3.10
2023-05-14T10:12:42.491Z,2.50
2023-05-14T10:15:27.412Z,2.80
2023-05-14T10:18:01.021Z,3.30
2023-05-14T10:20:28.306Z,2.80
2023-05-14T10:22:55.461Z,2.40
2023-05-14T10:25:22.693Z,2.80
2023-05-14T10:27:53.999Z,3.10
2023-05-14T10:33:08.913Z,2.90
2023-05-14T10:35:56.244Z,2.80
2023-05-14T10:38:27.564Z,2.90
2023-05-14T10:41:04.619Z,2.60
2023-05-14T10:43:38.722Z,3.20
2023-05-14T10:46:07.461Z,2.80
2023-05-14T10:48:34.888Z,2.70
2023-05-14T10:51:02.879Z,3.10
2023-05-14T10:53:39.233Z,2.90
2023-05-14T10:56:16.925Z,2.70
2023-05-14T10:58:45.074Z,2.80
2023-05-14T11:01:13.345Z,2.40
2023-05-14T11:03:45.383Z,3.00
2023-05-14T11:06:14.148Z,2.80
2023-05-14T11:08:41.777Z,2.60
2023-05-14T11:11:09.290Z,3.20
2023-05-14T11:13:36.465Z,2.90
2023-05-14T11:16:21.139Z,2.50
2023-05-14T11:18:55.054Z,2.90
2023-05-14T11:21:36.789Z,2.70
2023-05-14T11:26:34.681Z,3.20
2023-05-14T11:29:03.104Z,2.50
2023-05-14T11:31:32.288Z,2.60
2023-05-14T11:34:01.179Z,2.80
2023-05-14T11:36:28.260Z,3.00
2023-05-14T11:38:55.280Z,2.90
2023-05-14T11:41:23.459Z,3.00
2023-05-14T11:43:51.243Z,2.80
2023-05-14T11:46:18.990Z,2.80
2023-05-14T11:48:46.254Z,2.80
2023-05-14T11:51:13.297Z,2.90
2023-05-14T11:53:40.397Z,2.60
2023-05-14T11:56:09.681Z,2.90
2023-05-14T11:58:37.468Z,2.50
2023-05-14T12:01:05.039Z,2.70
2023-05-14T12:03:32.449Z,3.00
2023-05-14T12:06:00.577Z,2.60
2023-05-14T12:08:29.306Z,2.80
2023-05-14T12:10:56.625Z,2.80
2023-05-14T12:13:27.582Z,2.70
2023-05-14T12:15:56.643Z,2.70
2023-05-14T12:18:32.412Z,2.60
2023-05-14T12:21:03.413Z,2.90
2023-05-14T12:23:31.127Z,2.90
2023-05-14T12:26:08.940Z,2.50
2023-05-14T12:28:38.285Z,2.70
2023-05-14T12:31:05.967Z,2.70
2023-05-14T12:33:33.379Z,3.00
2023-05-14T12:36:19.902Z,2.50
2023-05-14T12:38:49.585Z,2.60
2023-05-14T12:41:18.454Z,2.50
2023-05-14T12:43:46.348Z,2.30
2023-05-14T12:46:13.396Z,2.90
2023-05-14T12:48:41.982Z,2.30
2023-05-14T12:51:09.054Z,2.50
2023-05-14T12:53:36.254Z,2.80
2023-05-14T12:56:03.312Z,2.30
2023-05-14T12:58:30.291Z,2.60
2023-05-14T13:00:57.304Z,2.70
2023-05-14T13:03:24.426Z,2.70
2023-05-14T13:05:52.790Z,2.30
2023-05-14T13:08:21.878Z,2.50
2023-05-14T13:10:49.014Z,2.10
2023-05-14T13:13:16.240Z,2.30
2023-05-14T13:15:43.414Z,2.40
2023-05-14T13:18:10.611Z,2.60
2023-05-14T13:20:37.693Z,2.40
2023-05-14T13:23:04.741Z,2.50
2023-05-14T13:25:33.581Z,2.80
2023-05-14T13:28:01.295Z,2.50
2023-05-14T13:30:28.409Z,2.60
2023-05-14T13:32:57.552Z,2.50
2023-05-14T13:35:24.971Z,2.40
2023-05-14T13:37:52.270Z,2.50
2023-05-14T13:40:19.558Z,2.40
2023-05-14T13:42:47.469Z,2.50
2023-05-14T13:45:14.649Z,2.60
2023-05-14T13:47:41.797Z,2.80
2023-05-14T13:50:09.299Z,2.80
2023-05-14T13:52:36.759Z,2.70
2023-05-14T13:55:04.372Z,2.40
2023-05-14T13:57:31.412Z,2.60
2023-05-14T13:59:58.446Z,2.70
2023-05-14T14:02:25.714Z,2.90
2023-05-14T14:04:52.824Z,2.80
2023-05-14T14:07:21.309Z,2.70
2023-05-14T14:09:48.470Z,2.50
2023-05-14T14:12:15.545Z,3.10
2023-05-14T14:14:42.607Z,3.00
2023-05-14T14:17:12.383Z,2.90
2023-05-14T14:19:41.488Z,3.30
2023-05-14T14:22:08.744Z,2.80
2023-05-14T14:24:35.923Z,2.80
2023-05-14T14:27:03.235Z,2.60
2023-05-14T14:29:31.471Z,2.60
2023-05-14T14:31:58.853Z,2.90
2023-05-14T14:34:26.039Z,2.90
2023-05-14T14:36:53.081Z,2.90
2023-05-14T14:39:20.090Z,2.90
2023-05-14T14:41:47.900Z,2.80
2023-05-14T14:44:15.097Z,3.40
2023-05-14T14:46:43.252Z,3.00
2023-05-14T14:49:10.442Z,2.70
2023-05-14T14:51:37.588Z,2.70
2023-05-14T14:54:07.500Z,3.30
2023-05-14T14:56:34.709Z,2.70
2023-05-14T14:59:02.568Z,2.70
2023-05-14T15:01:30.517Z,2.70
2023-05-14T15:03:57.821Z,2.50
2023-05-14T15:06:26.327Z,2.60
2023-05-14T15:08:54.589Z,2.60
2023-05-14T15:11:22.535Z,2.50
2023-05-14T15:13:49.767Z,2.90
2023-05-14T15:16:16.930Z,2.60
2023-05-14T15:18:44.055Z,2.40
2023-05-14T15:21:11.182Z,2.50
2023-05-14T15:23:38.302Z,2.70
2023-05-14T15:26:05.928Z,3.00
2023-05-14T15:28:33.421Z,3.10
2023-05-14T15:31:03.388Z,2.60
2023-05-14T15:33:33.058Z,2.80
2023-05-14T15:36:02.219Z,2.80
2023-05-14T15:38:29.483Z,3.20
2023-05-14T15:40:56.601Z,2.90
2023-05-14T15:43:23.717Z,2.80
2023-05-14T15:45:50.942Z,2.70
2023-05-14T15:48:18.320Z,2.90
2023-05-14T15:50:48.976Z,3.00
2023-05-14T15:53:17.598Z,2.60
2023-05-14T15:55:45.140Z,2.90
2023-05-14T15:58:13.101Z,2.60
2023-05-14T16:00:40.520Z,2.70
2023-05-14T16:03:07.728Z,3.30
2023-05-14T16:05:34.854Z,2.60
2023-05-14T16:08:01.833Z,3.20
2023-05-14T16:10:28.926Z,2.80
2023-05-14T16:12:56.166Z,3.20
2023-05-14T16:15:23.221Z,2.90
2023-05-14T16:17:50.648Z,2.80
2023-05-14T16:20:18.545Z,2.80
2023-05-14T16:22:45.805Z,2.70
2023-05-14T16:25:12.893Z,2.90
2023-05-14T16:27:39.958Z,3.10
2023-05-14T16:30:07.787Z,2.80
2023-05-14T16:32:34.875Z,2.90
2023-05-14T16:35:03.126Z,2.80
2023-05-14T16:37:30.338Z,3.00
2023-05-14T16:39:57.359Z,2.90
2023-05-14T16:42:25.028Z,2.80
2023-05-14T16:44:52.082Z,2.80
2023-05-14T16:47:19.213Z,2.90
2023-05-14T16:49:46.484Z,3.70
2023-05-14T16:52:14.040Z,5.00
2023-05-14T16:54:43.452Z,5.50
2023-05-14T16:57:11.030Z,8.00
2023-05-14T16:59:40.764Z,7.50
2023-05-14T17:02:08.820Z,8.00
2023-05-14T17:04:38.934Z,5.50
2023-05-14T17:07:06.961Z,5.30
2023-05-14T17:09:36.968Z,4.70
2023-05-14T17:12:04.729Z,4.70
2023-05-14T17:14:32.155Z,4.40
2023-05-14T17:16:59.321Z,3.70
2023-05-14T17:19:26.757Z,3.70
2023-05-14T17:21:53.858Z,4.00
2023-05-14T17:24:21.639Z,4.80
2023-05-14T17:26:49.192Z,5.40
2023-05-14T17:29:20.869Z,4.40
2023-05-14T17:31:49.426Z,3.60
2023-05-14T17:34:17.983Z,4.40
2023-05-14T17:36:47.493Z,6.10
2023-05-14T17:39:16.885Z,5.40
2023-05-14T17:41:44.234Z,6.40
2023-05-14T17:44:12.689Z,7.30
2023-05-14T17:46:44.466Z,7.90
2023-05-14T17:49:12.207Z,4.80
2023-05-14T17:51:39.392Z,4.70
2023-05-14T17:54:09.346Z,4.90
2023-05-14T17:56:38.871Z,5.30
2023-05-14T17:59:06.507Z,5.50
2023-05-14T18:01:43.201Z,5.40
2023-05-14T18:07:19.392Z,4.50
2023-05-14T18:09:47.301Z,4.40
2023-05-14T18:12:16.417Z,4.50
2023-05-14T18:14:48.330Z,4.90
2023-05-14T18:17:19.145Z,4.70
2023-05-14T18:19:48.598Z,4.30
2023-05-14T18:22:22.604Z,4.80
2023-05-14T18:24:52.708Z,4.90
2023-05-14T18:27:23.066Z,4.70
2023-05-14T18:30:01.454Z,5.10
2023-05-14T18:32:32.157Z,5.00
2023-05-14T18:35:01.998Z,5.40
2023-05-14T18:37:30.473Z,5.50
2023-05-14T18:40:02.084Z,4.90
2023-05-14T18:42:30.301Z,5.30
2023-05-14T18:45:00.601Z,5.10
2023-05-14T18:47:32.641Z,5.10
2023-05-14T18:50:07.578Z,5.60
2023-05-14T18:52:35.326Z,5.30
2023-05-14T18:55:04.036Z,5.50
2023-05-14T18:57:34.955Z,6.00
2023-05-14T19:00:02.326Z,5.30
2023-05-14T19:02:30.308Z,6.60
2023-05-14T19:04:58.533Z,7.50
2023-05-14T19:07:26.147Z,9.80
2023-05-14T19:10:00.472Z,7.80
2023-05-14T19:12:38.215Z,8.50
2023-05-14T19:15:06.716Z,8.30
2023-05-14T19:17:33.857Z,8.30
2023-05-14T19:20:02.344Z,8.30
2023-05-14T19:22:29.487Z,8.20
2023-05-14T19:24:57.197Z,8.70
2023-05-14T19:27:24.670Z,8.10
2023-05-14T19:29:55.585Z,8.40
2023-05-14T19:32:41.001Z,7.30
2023-05-14T19:35:09.455Z,7.30
2023-05-14T19:37:37.009Z,7.80
2023-05-14T19:40:06.680Z,7.80
2023-05-14T19:42:36.366Z,7.90
2023-05-14T19:45:05.254Z,8.40
2023-05-14T19:47:37.614Z,8.70
2023-05-14T19:50:09.911Z,8.30
2023-05-14T19:52:37.785Z,6.90
2023-05-14T19:55:05.898Z,7.20
2023-05-14T19:57:34.175Z,7.40
2023-05-14T20:00:02.741Z,7.80
2023-05-14T20:02:37.948Z,8.00
2023-05-14T20:05:13.304Z,7.80
2023-05-14T20:07:40.692Z,7.50
2023-05-14T20:10:08.490Z,8.10
2023-05-14T20:12:35.515Z,7.70
2023-05-14T20:15:03.737Z,7.40
2023-05-14T20:17:31.282Z,7.70
2023-05-14T20:20:00.144Z,7.80
2023-05-14T20:22:27.334Z,7.90
2023-05-14T20:24:56.022Z,7.90
2023-05-14T20:27:26.578Z,7.90
2023-05-14T20:29:55.578Z,7.40
2023-05-14T20:32:26.127Z,8.30
2023-05-14T20:34:53.161Z,8.00
2023-05-14T20:37:20.232Z,8.10
2023-05-14T20:39:47.717Z,8.00
2023-05-14T20:42:16.542Z,7.70
2023-05-14T20:44:43.678Z,7.60
2023-05-14T20:47:10.786Z,7.70
2023-05-14T20:49:39.054Z,6.90
2023-05-14T20:52:06.398Z,6.60
2023-05-14T20:54:35.255Z,6.70
2023-05-14T20:57:03.909Z,7.30
2023-05-14T20:59:31.084Z,6.90
2023-05-14T21:01:58.390Z,6.50
2023-05-14T21:04:26.644Z,6.80
2023-05-14T21:06:54.273Z,6.70
2023-05-14T21:09:23.449Z,6.70
2023-05-14T21:11:50.629Z,6.70
2023-05-14T21:14:17.635Z,6.50
2023-05-14T21:16:44.655Z,7.60
2023-05-14T21:19:17.210Z,7.00
2023-05-14T21:21:44.443Z,6.90
2023-05-14T21:24:12.644Z,7.00
2023-05-14T21:26:40.602Z,6.20
2023-05-14T21:29:09.750Z,6.70
2023-05-14T21:31:36.769Z,6.20
2023-05-14T21:34:03.801Z,7.10
2023-05-14T21:36:32.182Z,7.00
2023-05-14T21:38:59.436Z,6.90
2023-05-14T21:41:26.516Z,6.50
2023-05-14T21:43:53.577Z,6.50
2023-05-14T21:46:20.612Z,7.40
2023-05-14T21:48:47.854Z,7.10
2023-05-14T21:51:15.238Z,7.00
2023-05-14T21:53:42.485Z,7.30
2023-05-14T21:56:09.886Z,8.10
2023-05-14T21:58:37.056Z,7.20
2023-05-14T22:01:04.813Z,7.50
2023-05-14T22:03:32.115Z,7.10
2023-05-14T22:05:59.360Z,7.50
2023-05-14T22:08:27.410Z,7.30
2023-05-14T22:10:55.487Z,6.90
2023-05-14T22:13:22.535Z,6.70
2023-05-14T22:15:51.349Z,6.70
2023-05-14T22:18:22.646Z,6.80
2023-05-14T22:20:49.710Z,6.70
2023-05-14T22:23:16.757Z,7.40
2023-05-14T22:25:43.955Z,7.00
2023-05-14T22:28:10.955Z,7.00
2023-05-14T22:30:37.945Z,6.80
2023-05-14T22:33:05.106Z,7.30
2023-05-14T22:35:32.127Z,7.00
2023-05-14T22:37:59.163Z,7.00
2023-05-14T22:40:26.217Z,7.10
2023-05-14T22:42:53.246Z,6.90
2023-05-14T22:45:20.289Z,6.90
2023-05-14T22:47:47.413Z,7.10
2023-05-14T22:50:14.507Z,7.50
2023-05-14T22:52:41.721Z,7.00
2023-05-14T22:55:10.648Z,7.20
2023-05-14T22:57:37.791Z,6.90
2023-05-14T23:00:05.407Z,7.50
2023-05-14T23:02:33.910Z,7.30
2023-05-14T23:05:01.518Z,7.10
2023-05-14T23:07:28.540Z,7.00
2023-05-14T23:09:55.699Z,7.40
2023-05-14T23:12:22.748Z,7.60
2023-05-14T23:14:49.781Z,8.40
2023-05-14T23:17:17.506Z,7.80
2023-05-14T23:19:44.578Z,8.00
2023-05-14T23:22:11.552Z,7.60
2023-05-14T23:24:38.708Z,7.80
2023-05-14T23:27:05.750Z,7.90
2023-05-14T23:29:34.836Z,7.20
2023-05-14T23:32:01.903Z,7.20
2023-05-14T23:34:28.950Z,7.90
2023-05-14T23:36:55.924Z,8.10
2023-05-14T23:39:23.022Z,7.50
2023-05-14T23:41:50.096Z,8.20
2023-05-14T23:44:17.089Z,7.20
2023-05-14T23:46:44.132Z,7.50
2023-05-14T23:49:13.486Z,7.50
2023-05-14T23:51:40.469Z,7.50
2023-05-14T23:54:07.496Z,7.60
2023-05-14T23:56:46.768Z,8.00
2023-05-14T23:59:14.221Z,8.20
